Data for 01/02/2007

Time Sea-Level Adjusted Pressure Absolute Pressure Temperature Relative Humidity Dew Point   
(mb) (inHg) (mb) (inHg) (C) (F) (%) (C) (F)
00:05 1021 30.15 850 25.1 -1.4 29.5 70 -6.1 20.9
00:10 1021 30.15 850 25.1 -1.4 29.5 75 -5.3 22.5
00:15 1021 30.15 850 25.1 -2.3 27.8 80 -5.4 22.3
00:20 1021 30.15 850 25.1 -2.1 28.1 74 -6.2 20.9
00:25 1020 30.12 850 25.1 -1.6 29.1 75 -5.5 22.1
00:30 1020 30.12 850 25.1 -1.5 29.3 73 -5.7 21.7
00:35 1020 30.12 850 25.1 -1.3 29.6 72 -5.7 21.7
00:40 1020 30.12 849 25.07 -1 30.2 69 -5.9 21.3
00:45 1020 30.12 849 25.07 -0.9 30.4 70 -5.7 21.7
00:50 1020 30.12 849 25.07 -0.7 30.7 67 -6 21.2
00:55 1020 30.12 849 25.07 -0.3 31.5 64 -6.2 20.8
01:00 1020 30.12 849 25.07 -0 32 64 -6 21.2
01:05 1020 30.12 849 25.07 -0.2 31.6 68 -5.5 22.1
01:10 1020 30.12 849 25.07 -0.2 31.6 66 -5.7 21.7
01:15 1020 30.12 849 25.07 -0 32 66 -5.6 21.9
01:20 1020 30.12 850 25.1 0 32 67 -5.3 22.4
01:25 1020 30.12 850 25.1 0.1 32.3 67 -5.3 22.4
01:30 1020 30.12 850 25.1 0.1 32.1 67 -5.2 22.6
01:35 1020 30.12 849 25.07 -0.3 31.5 71 -5 23
01:40 1020 30.12 849 25.07 -0.5 31 72 -4.9 23.1
01:45 1020 30.12 849 25.07 -0.2 31.7 69 -5.1 22.9
01:50 1020 30.12 850 25.1 0.2 32.4 68 -4.9 23.1
01:55 1020 30.12 850 25.1 0.3 32.5 68 -4.9 23.2
02:00 1020 30.12 850 25.1 0.8 33.4 66 -4.9 23.3
02:05 1020 30.12 850 25.1 1 33.7 67 -4.6 23.7
02:10 1020 30.12 850 25.1 1 33.8 67 -4.5 24
02:15 1020 30.12 850 25.1 1.1 33.9 66 -4.5 23.9
02:20 1020 30.12 849 25.07 0.8 33.5 70 -4.1 24.6
02:25 1020 30.12 849 25.07 -0.2 31.6 75 -4.2 24.5
02:30 1020 30.12 849 25.07 -0.8 30.6 76 -4.5 23.9
02:35 1020 30.12 849 25.07 -0.9 30.4 76 -4.6 23.7
02:40 1020 30.12 849 25.07 -0.5 31.1 73 -4.7 23.5
02:45 1020 30.12 849 25.07 -0.7 30.8 77 -4.3 24.3
02:50 1020 30.12 849 25.07 -0.9 30.4 77 -4.5 23.9
02:55 1020 30.12 849 25.07 -0.8 30.5 76 -4.5 23.9
03:00 1020 30.12 849 25.07 -0.9 30.3 76 -4.6 23.7
03:05 1020 30.12 849 25.07 -1.1 30 75 -4.9 23.1
03:10 1020 30.12 849 25.07 -0.6 30.9 74 -4.7 23.5
03:15 1020 30.12 849 25.07 -0.4 31.3 72 -4.8 23.4
03:20 1020 30.12 849 25.07 -0.2 31.6 72 -4.7 23.6
03:25 1020 30.12 849 25.07 -0.2 31.6 73 -4.5 23.9
03:30 1020 30.12 849 25.07 -0.3 31.4 73 -4.7 23.6
03:35 1020 30.12 849 25.07 -0.1 31.8 72 -4.5 23.9
03:40 1020 30.12 849 25.07 -0.4 31.3 76 -4.2 24.5
03:45 1020 30.12 849 25.07 -0.9 30.3 77 -4.4 24.1
03:50 1020 30.12 849 25.07 -1 30.2 77 -4.6 23.7
03:55 1020 30.12 849 25.07 -1.1 30 76 -4.9 23.2
04:00 1020 30.12 849 25.07 -1.1 30 79 -4.2 24.4
04:05 1019 30.09 849 25.07 -1.9 28.7 84 -4.2 24.4
04:10 1019 30.09 848 25.04 -1.6 29.1 79 -4.8 23.3
04:15 1019 30.09 848 25.04 -1.2 29.9 77 -4.7 23.6
04:20 1019 30.09 848 25.04 -1 30.2 75 -4.8 23.3
04:25 1019 30.09 848 25.04 -0.9 30.4 77 -4.5 24
04:30 1019 30.09 848 25.04 -0.9 30.4 77 -4.5 23.9
04:35 1019 30.09 848 25.04 -1.1 30 79 -4.3 24.3
04:40 1019 30.09 848 25.04 -1.2 29.8 81 -4.1 24.5
04:45 1019 30.09 848 25.04 -1.1 30 78 -4.5 23.9
04:50 1019 30.09 848 25.04 -0.7 30.8 74 -4.7 23.6
04:55 1019 30.09 848 25.04 -0.3 31.5 74 -4.3 24.3
05:00 1019 30.09 848 25.04 -0.2 31.6 75 -4.2 24.5
05:05 1019 30.09 848 25.04 -0.6 30.9 76 -4.3 24.3
05:10 1019 30.09 848 25.04 -0.6 30.9 77 -4.2 24.4
05:15 1019 30.09 848 25.04 -0.7 30.8 79 -3.9 25.1
05:20 1019 30.09 849 25.07 -0.9 30.4 80 -3.9 24.9
05:25 1020 30.12 849 25.07 -0.7 30.8 78 -4.1 24.6
05:30 1020 30.12 849 25.07 -0.4 31.2 77 -3.9 24.9
05:35 1020 30.12 849 25.07 -0.3 31.4 75 -4.3 24.3
05:40 1020 30.12 849 25.07 -0.4 31.3 78 -3.8 25.1
05:45 1020 30.12 849 25.07 -0.9 30.5 79 -4.1 24.6
05:50 1019 30.09 849 25.07 -0.7 30.7 78 -4.2 24.5
05:55 1019 30.09 848 25.04 -0.2 31.6 76 -3.9 24.9
06:00 1019 30.09 848 25.04 -0.2 31.6 77 -3.8 25.2
06:05 1019 30.09 848 25.04 0.1 32.2 75 -3.9 25
06:10 1019 30.09 848 25.04 0 32.1 77 -3.5 25.8
06:15 1019 30.09 848 25.04 -0.7 30.7 80 -3.7 25.3
06:20 1019 30.09 848 25.04 -1 30.3 78 -4.2 24.4
06:25 1019 30.09 848 25.04 -0.8 30.5 79 -4.1 24.6
06:30 1019 30.09 848 25.04 -1 30.2 79 -4.2 24.5
06:35 1019 30.09 848 25.04 -0.9 30.4 77 -4.4 24.1
06:40 1019 30.09 848 25.04 -0.5 31.1 74 -4.6 23.8
06:45 1019 30.09 848 25.04 0 32 72 -4.4 24
06:50 1019 30.09 848 25.04 0.1 32.1 74 -3.9 24.9
06:55 1018 30.06 848 25.04 -0.3 31.5 75 -4.2 24.4
07:00 1018 30.06 848 25.04 -0.3 31.5 75 -4.2 24.5
07:05 1018 30.06 848 25.04 -0.2 31.6 73 -4.5 24
07:10 1019 30.09 848 25.04 0.4 32.8 70 -4.3 24.2
07:15 1019 30.09 848 25.04 0.7 33.2 69 -4.4 24.1
07:20 1019 30.09 848 25.04 0.8 33.5 69 -4.2 24.4
07:25 1019 30.09 848 25.04 0.9 33.6 69 -4.2 24.5
07:30 1019 30.09 848 25.04 1.2 34.1 68 -4 24.8
07:35 1019 30.09 848 25.04 1 33.9 69 -3.9 24.9
07:40 1019 30.09 848 25.04 0.9 33.7 71 -3.8 25.1
07:45 1019 30.09 848 25.04 0.2 32.4 74 -3.9 24.9
07:50 1019 30.09 848 25.04 0.3 32.6 72 -4.1 24.6
07:55 1019 30.09 848 25.04 0.7 33.3 69 -4.4 24.2
08:00 1019 30.09 848 25.04 1.3 34.4 66 -4.3 24.3
08:05 1019 30.09 848 25.04 1.7 35 66 -4 24.8
08:10 1019 30.09 848 25.04 2 35.6 66 -3.8 25.2
08:15 1019 30.09 848 25.04 2.2 35.9 64 -3.9 25
08:20 1019 30.09 848 25.04 2.4 36.4 64 -3.6 25.5
08:25 1019 30.09 848 25.04 2.2 35.9 65 -3.7 25.3
08:30 1019 30.09 848 25.04 1.9 35.5 68 -3.3 26
08:35 1019 30.09 848 25.04 1.4 34.4 69 -3.8 25.2
08:40 1019 30.09 848 25.04 1.9 35.5 64 -4.2 24.4
08:45 1019 30.09 848 25.04 2.6 36.7 62 -3.9 24.9
08:50 1019 30.09 848 25.04 3.1 37.6 61 -3.8 25.2
08:55 1019 30.09 848 25.04 3.5 38.3 63 -2.9 26.8
09:00 1019 30.09 848 25.04 2.8 37 67 -2.7 27.2
09:05 1019 30.09 848 25.04 2 35.6 72 -2.5 27.5
09:10 1019 30.09 848 25.04 1.4 34.5 73 -2.9 26.8
09:15 1019 30.09 848 25.04 1.5 34.7 71 -3.2 26.2
09:20 1019 30.09 848 25.04 1.8 35.2 71 -2.9 26.9
09:25 1019 30.09 848 25.04 1.9 35.4 71 -2.8 27
09:30 1019 30.09 848 25.04 1.8 35.2 71 -2.8 26.9
09:35 1019 30.09 849 25.07 2.1 35.8 70 -2.9 26.9
09:40 1019 30.09 849 25.07 2.3 36.1 71 -2.5 27.5
09:45 1019 30.09 849 25.07 2.3 36.2 70 -2.6 27.3
09:50 1019 30.09 848 25.04 2.6 36.6 68 -2.7 27.1
09:55 1019 30.09 848 25.04 2.9 37.2 67 -2.6 27.4
10:00 1019 30.09 849 25.07 3.3 38 65 -2.5 27.5
10:05 1019 30.09 849 25.07 3.8 38.9 63 -2.6 27.2
10:10 1019 30.09 848 25.04 4.3 39.7 62 -2.3 27.8
10:15 1019 30.09 848 25.04 4.5 40.1 60 -2.7 27.2
10:20 1019 30.09 848 25.04 4.7 40.5 58 -2.7 27.1
10:25 1019 30.09 848 25.04 5.1 41.1 59 -2.2 28.1
10:30 1019 30.09 848 25.04 5.2 41.3 57 -2.7 27.1
10:35 1019 30.09 848 25.04 4.9 40.8 57 -2.9 26.9
10:40 1019 30.09 848 25.04 4.9 40.8 56 -3.1 26.4
10:45 1019 30.09 848 25.04 4.9 40.8 58 -2.7 27.2
10:50 1019 30.09 848 25.04 4.7 40.5 58 -2.8 27
10:55 1019 30.09 848 25.04 5.2 41.4 56 -2.7 27.1
11:00 1019 30.09 848 25.04 6 42.8 51 -3.3 26.1
11:05 1019 30.09 848 25.04 6.8 44.3 51 -2.6 27.4
11:10 1019 30.09 848 25.04 7.3 45.2 49 -2.6 27.3
11:15 1019 30.09 848 25.04 7.5 45.4 54 -1.2 29.8
11:20 1018 30.06 848 25.04 7.4 45.3 59 -0 31.9
11:25 1018 30.06 848 25.04 7.2 44.9 50 -2.6 27.3
11:30 1018 30.06 847 25.01 7.5 45.4 49 -2.6 27.4
11:35 1018 30.06 847 25.01 7.3 45.1 51 -2.2 28
11:40 1018 30.06 847 25.01 6.9 44.5 52 -2.2 28
11:45 1018 30.06 847 25.01 6.3 43.3 55 -2 28.4
11:50 1017 30.03 847 25.01 6.1 42.9 54 -2.6 27.3
11:55 1017 30.03 846 24.98 6.3 43.3 52 -2.9 26.7
12:00 1017 30.03 846 24.98 6.7 44 53 -2.2 28
12:05 1017 30.03 846 24.98 7 44.7 55 -1.3 29.7
12:10 1017 30.03 846 24.98 7 44.6 54 -1.8 28.8
12:15 1017 30.03 846 24.98 7.1 44.7 53 -1.7 28.9
12:20 1017 30.03 846 24.98 7.1 44.7 53 -1.8 28.7
12:25 1017 30.03 846 24.98 6.6 43.9 55 -1.7 29
12:30 1017 30.03 846 24.98 5.9 42.7 58 -1.8 28.8
12:35 1017 30.03 846 24.98 5.8 42.5 58 -1.7 28.9
12:40 1017 30.03 846 24.98 5.9 42.7 57 -1.8 28.7
12:45 1017 30.03 846 24.98 6.6 43.9 52 -2.5 27.6
12:50 1017 30.03 846 24.98 7.9 46.2 49 -2.1 28.3
12:55 1017 30.03 846 24.98 7.8 46.1 51 -1.6 29.2
13:00 1017 30.03 846 24.98 7 44.6 55 -1.3 29.6
13:05 1016 30 846 24.98 6.7 44 57 -1.2 29.8
13:10 1016 30 846 24.98 6.7 44.1 57 -1.2 29.9
13:15 1016 30 846 24.98 6.2 43.2 58 -1.4 29.4
13:20 1016 30 846 24.98 6 42.8 59 -1.4 29.4
13:25 1016 30 845 24.95 5.9 42.6 59 -1.4 29.5
13:30 1016 30 845 24.95 5.9 42.6 58 -1.6 29.1
13:35 1016 30 845 24.95 6 42.8 60 -1.1 30.1
13:40 1016 30 845 24.95 6.6 44 55 -1.6 29.1
13:45 1016 30 845 24.95 6.6 44 60 -0.5 31
13:50 1016 30 845 24.95 6.5 43.7 59 -1 30.2
13:55 1016 30 845 24.95 6.7 44.1 56 -1.4 29.5
14:00 1016 30 845 24.95 7.3 45.2 54 -1.3 29.7
14:05 1016 30 845 24.95 7.6 45.7 56 -0.5 31.1
14:10 1016 30 845 24.95 7.5 45.6 55 -0.9 30.5
14:15 1016 30 845 24.95 7.1 44.8 57 -0.7 30.8
14:20 1016 30 845 24.95 7 44.6 56 -1.3 29.7
14:25 1016 30 845 24.95 6.8 44.2 55 -1.7 29
14:30 1016 30 845 24.95 7.1 44.7 54 -1.5 29.3
14:35 1016 30 845 24.95 7.2 44.9 54 -1.4 29.5
14:40 1016 30 845 24.95 7 44.6 55 -1.4 29.4
14:45 1016 30 845 24.95 7 44.6 54 -1.8 28.8
14:50 1016 30 845 24.95 7.2 45 53 -1.6 29.1
14:55 1016 30 845 24.95 7.1 44.8 53 -1.7 28.9
15:00 1016 30 845 24.95 7.3 45.2 49 -2.6 27.4
15:05 1016 30 845 24.95 7.6 45.7 45 -3.5 25.7
15:10 1016 30 845 24.95 8.2 46.8 39 -4.8 23.3
15:15 1016 30 845 24.95 8.6 47.4 39 -4.4 24
15:20 1016 30 845 24.95 8.6 47.5 37 -5.1 22.8
15:25 1016 30 845 24.95 8.7 47.7 38 -4.9 23.2
15:30 1016 30 845 24.95 8.6 47.5 39 -4.5 23.9
15:35 1016 30 845 24.95 8.6 47.4 39 -4.6 23.7
15:40 1016 30 845 24.95 8.7 47.6 39 -4.4 24
15:45 1016 30 845 24.95 8.4 47.2 38 -4.9 23.1
15:50 1016 30 845 24.95 8.3 47 40 -4.5 23.9
15:55 1016 30 845 24.95 8.3 46.9 40 -4.7 23.6
16:00 1016 30 845 24.95 8.2 46.8 40 -4.7 23.6
16:05 1016 30 845 24.95 8.1 46.7 41 -4.4 24.1
16:10 1015 29.97 845 24.95 7.9 46.1 42 -4.4 24.2
16:15 1015 29.97 845 24.95 8.1 46.6 38 -5.2 22.7
16:20 1015 29.97 844 24.92 8.7 47.6 36 -5.7 21.7
16:25 1015 29.97 844 24.92 8.7 47.6 37 -5 22.9
16:30 1015 29.97 844 24.92 8.5 47.2 38 -5.1 22.9
16:35 1015 29.97 844 24.92 8.3 46.9 40 -4.6 23.7
16:40 1015 29.97 844 24.92 8 46.3 40 -4.9 23.2
16:45 1015 29.97 844 24.92 8 46.3 41 -4.6 23.7
16:50 1015 29.97 844 24.92 8 46.4 40 -4.7 23.5
16:55 1015 29.97 844 24.92 7.8 46 42 -4.4 24
17:00 1015 29.97 844 24.92 7.5 45.5 42 -4.5 23.9
17:05 1015 29.97 844 24.92 7.4 45.3 42 -4.7 23.6
17:10 1015 29.97 844 24.92 7.4 45.3 43 -4.4 24.1
17:15 1015 29.97 844 24.92 7.4 45.3 42 -4.8 23.4
17:20 1015 29.97 844 24.92 7.5 45.4 41 -4.9 23.2
17:25 1015 29.97 844 24.92 7.7 45.8 40 -5 23
17:30 1015 29.97 844 24.92 7.7 45.9 40 -4.9 23.2
17:35 1015 29.97 844 24.92 7.8 46.1 40 -4.8 23.4
17:40 1015 29.97 844 24.92 7.8 46 42 -4.5 24
17:45 1015 29.97 844 24.92 7.8 46 40 -4.9 23.2
17:50 1015 29.97 844 24.92 7.7 45.8 43 -4 24.7
17:55 1015 29.97 844 24.92 7.3 45.2 44 -4 24.7
18:00 1015 29.97 844 24.92 7.3 45.2 46 -3.6 25.5
18:05 1014 29.94 844 24.92 7.3 45.1 44 -4.2 24.5
18:10 1014 29.94 844 24.92 7.6 45.7 43 -4 24.8
18:15 1014 29.94 843 24.89 7.6 45.7 45 -3.5 25.6
18:20 1014 29.94 843 24.89 7.5 45.5 45 -3.6 25.5
18:25 1014 29.94 843 24.89 7.7 45.8 45 -3.5 25.7
18:30 1014 29.94 843 24.89 7.7 45.9 44 -3.7 25.3
18:35 1014 29.94 843 24.89 7.8 46 44 -3.6 25.6
18:40 1014 29.94 843 24.89 7.8 46.1 45 -3.4 25.9
18:45 1014 29.94 843 24.89 7.8 46.1 45 -3.4 25.9
18:50 1014 29.94 843 24.89 7.8 46.1 45 -3.3 26.1
18:55 1014 29.94 843 24.89 7.8 46 46 -3.1 26.4
19:00 1014 29.94 843 24.89 7.8 46.1 46 -3.1 26.4
19:05 1014 29.94 843 24.89 7.8 46 46 -3.1 26.5
19:10 1014 29.94 843 24.89 7.7 45.9 46 -3.2 26.2
19:15 1013 29.91 843 24.89 7.9 46.3 45 -3.2 26.2
19:20 1013 29.91 843 24.89 8 46.3 47 -2.7 27.1
19:25 1013 29.91 842 24.86 7.7 45.9 47 -2.9 26.9
19:30 1013 29.91 842 24.86 7.6 45.6 48 -2.8 27
19:35 1013 29.91 842 24.86 7.4 45.2 48 -3 26.6
19:40 1013 29.91 842 24.86 7.4 45.4 48 -2.9 26.8
19:45 1013 29.91 842 24.86 7.5 45.5 47 -3.2 26.3
19:50 1013 29.91 842 24.86 7.8 46 45 -3.4 25.9
19:55 1013 29.91 842 24.86 7.8 46.1 46 -3.2 26.2
20:00 1013 29.91 842 24.86 7.7 45.9 46 -3.1 26.4
20:05 1013 29.91 842 24.86 7.5 45.4 47 -3.2 26.3
20:10 1013 29.91 842 24.86 7.5 45.6 45 -3.5 25.6
20:15 1013 29.91 842 24.86 7.6 45.6 46 -3.3 26
20:20 1012 29.88 842 24.86 7.5 45.6 46 -3.4 26
20:25 1012 29.88 842 24.86 7.6 45.7 45 -3.4 25.8
20:30 1012 29.88 841 24.83 7.9 46.2 43 -4 24.8
20:35 1012 29.88 841 24.83 8.1 46.5 44 -3.4 25.9
20:40 1012 29.88 842 24.86 7.9 46.2 43 -3.8 25.2
20:45 1012 29.88 841 24.83 8.2 46.7 43 -3.5 25.6
20:50 1012 29.88 841 24.83 7.9 46.2 43 -3.8 25.2
20:55 1012 29.88 841 24.83 8.2 46.8 42 -4 24.9
21:00 1012 29.88 841 24.83 8.4 47.1 41 -4 24.8
21:05 1012 29.88 841 24.83 8.3 46.9 42 -4 24.8
21:10 1012 29.88 841 24.83 8.6 47.5 38 -4.7 23.5
21:15 1012 29.88 841 24.83 8.8 47.8 41 -3.8 25.2
21:20 1012 29.88 841 24.83 8.3 47 42 -3.7 25.3
21:25 1012 29.88 841 24.83 8.2 46.7 41 -4.3 24.2
21:30 1011 29.85 841 24.83 8.4 47.2 40 -4.3 24.3
21:35 1011 29.85 841 24.83 8.4 47.1 39 -4.8 23.4
21:40 1011 29.85 841 24.83 8.4 47.1 41 -4.1 24.6
21:45 1011 29.85 841 24.83 8.2 46.7 41 -4.2 24.4
21:50 1011 29.85 841 24.83 8.1 46.5 42 -4 24.9
21:55 1011 29.85 840 24.81 8 46.4 42 -4.3 24.3
22:00 1011 29.85 840 24.81 8.1 46.5 41 -4.2 24.4
22:05 1011 29.85 840 24.81 8.1 46.6 42 -4.1 24.6
22:10 1011 29.85 840 24.81 8.1 46.5 42 -4.2 24.5
22:15 1011 29.85 840 24.81 8 46.4 42 -4 24.8
22:20 1011 29.85 840 24.81 7.9 46.2 42 -4.3 24.2
22:25 1011 29.85 840 24.81 8 46.3 41 -4.4 24.2
22:30 1011 29.85 840 24.81 8 46.3 43 -4 24.8
22:35 1011 29.85 840 24.81 7.9 46.2 42 -4.1 24.6
22:40 1011 29.85 840 24.81 8 46.5 42 -3.9 24.9
22:45 1011 29.85 840 24.81 8.1 46.6 40 -4.7 23.6
22:50 1011 29.85 840 24.81 8.3 47 40 -4.5 23.9
22:55 1011 29.85 840 24.81 8.4 47.1 38 -5 23
23:00 1011 29.85 840 24.81 8.5 47.3 38 -4.9 23.1
23:05 1011 29.85 840 24.81 8.5 47.2 38 -5 23
23:10 1010 29.83 840 24.81 8.4 47.2 37 -5.3 22.5
23:15 1010 29.83 839 24.78 8.4 47.2 37 -5.5 22.1
23:20 1010 29.83 839 24.78 8.7 47.7 36 -5.6 22
23:25 1010 29.83 839 24.78 8.4 47.1 37 -5.4 22.3
23:30 1010 29.83 839 24.78 8.3 47 37 -5.5 22.2
23:35 1010 29.83 839 24.78 8.4 47.1 36 -5.9 21.4
23:40 1010 29.83 839 24.78 8.4 47.1 36 -5.7 21.7
23:45 1009 29.8 839 24.78 8.4 47.1 35 -6.3 20.6
23:50 1010 29.83 839 24.78 8.5 47.2 35 -6.1 21
23:55 1010 29.83 839 24.78 8.4 47.1 35 -6 21.2
24:00 1010 29.83 839 24.78 8.3 47 35 -6.1 21.1